sensor_id;sensor_type;location;lat;lon;timestamp;P1;durP1;ratioP1;P2;durP2;ratioP2
9034;SDS011;4552;43.422;24.592;2023-06-22T00:18:48;10.87;;;8.40;;
9034;SDS011;4552;43.422;24.592;2023-06-22T00:21:15;7.90;;;7.10;;
9034;SDS011;4552;43.422;24.592;2023-06-22T00:23:42;9.93;;;7.57;;
9034;SDS011;4552;43.422;24.592;2023-06-22T00:26:09;10.53;;;7.27;;
9034;SDS011;4552;43.422;24.592;2023-06-22T00:31:58;12.40;;;7.20;;
9034;SDS011;4552;43.422;24.592;2023-06-22T00:34:26;9.10;;;7.10;;
9034;SDS011;4552;43.422;24.592;2023-06-22T00:36:53;9.90;;;7.40;;
9034;SDS011;4552;43.422;24.592;2023-06-22T00:39:20;8.73;;;6.90;;
9034;SDS011;4552;43.422;24.592;2023-06-22T00:41:47;9.97;;;6.83;;
9034;SDS011;4552;43.422;24.592;2023-06-22T01:07:16;10.60;;;5.67;;
9034;SDS011;4552;43.422;24.592;2023-06-22T01:09:52;6.90;;;5.43;;
9034;SDS011;4552;43.422;24.592;2023-06-22T01:12:23;5.80;;;5.20;;
9034;SDS011;4552;43.422;24.592;2023-06-22T01:14:54;7.13;;;5.43;;
9034;SDS011;4552;43.422;24.592;2023-06-22T01:17:26;7.17;;;5.20;;
9034;SDS011;4552;43.422;24.592;2023-06-22T01:19:55;7.83;;;5.23;;
9034;SDS011;4552;43.422;24.592;2023-06-22T01:22:24;7.40;;;5.60;;
9034;SDS011;4552;43.422;24.592;2023-06-22T01:24:57;8.27;;;5.80;;
9034;SDS011;4552;43.422;24.592;2023-06-22T01:27:35;7.60;;;5.70;;
9034;SDS011;4552;43.422;24.592;2023-06-22T01:30:09;6.20;;;5.30;;
9034;SDS011;4552;43.422;24.592;2023-06-22T01:32:38;6.80;;;5.43;;
9034;SDS011;4552;43.422;24.592;2023-06-22T01:35:07;7.00;;;5.70;;
9034;SDS011;4552;43.422;24.592;2023-06-22T01:37:35;7.83;;;5.30;;
9034;SDS011;4552;43.422;24.592;2023-06-22T01:40:04;6.57;;;5.47;;
9034;SDS011;4552;43.422;24.592;2023-06-22T01:42:33;7.50;;;5.90;;
9034;SDS011;4552;43.422;24.592;2023-06-22T01:45:01;7.93;;;5.23;;
9034;SDS011;4552;43.422;24.592;2023-06-22T01:47:30;7.83;;;6.43;;
9034;SDS011;4552;43.422;24.592;2023-06-22T01:49:58;6.10;;;5.20;;
9034;SDS011;4552;43.422;24.592;2023-06-22T01:52:25;7.93;;;5.77;;
9034;SDS011;4552;43.422;24.592;2023-06-22T01:54:52;7.83;;;5.37;;
9034;SDS011;4552;43.422;24.592;2023-06-22T02:10:48;7.13;;;5.30;;
9034;SDS011;4552;43.422;24.592;2023-06-22T02:39:31;6.87;;;5.50;;
9034;SDS011;4552;43.422;24.592;2023-06-22T02:41:58;6.23;;;5.00;;
9034;SDS011;4552;43.422;24.592;2023-06-22T02:44:25;7.37;;;5.30;;
9034;SDS011;4552;43.422;24.592;2023-06-22T02:46:52;6.83;;;4.87;;
9034;SDS011;4552;43.422;24.592;2023-06-22T02:49:19;6.87;;;5.50;;
9034;SDS011;4552;43.422;24.592;2023-06-22T02:51:46;6.67;;;5.03;;
9034;SDS011;4552;43.422;24.592;2023-06-22T02:54:14;6.60;;;5.23;;
9034;SDS011;4552;43.422;24.592;2023-06-22T02:56:42;7.33;;;5.40;;
9034;SDS011;4552;43.422;24.592;2023-06-22T02:59:10;5.63;;;5.03;;
9034;SDS011;4552;43.422;24.592;2023-06-22T03:01:37;6.23;;;5.07;;
9034;SDS011;4552;43.422;24.592;2023-06-22T03:04:06;5.83;;;5.10;;
9034;SDS011;4552;43.422;24.592;2023-06-22T03:06:33;6.57;;;5.27;;
9034;SDS011;4552;43.422;24.592;2023-06-22T03:09:01;10.67;;;5.57;;
9034;SDS011;4552;43.422;24.592;2023-06-22T03:11:30;5.40;;;4.80;;
9034;SDS011;4552;43.422;24.592;2023-06-22T03:13:58;7.90;;;6.37;;
9034;SDS011;4552;43.422;24.592;2023-06-22T03:16:25;8.50;;;5.87;;
9034;SDS011;4552;43.422;24.592;2023-06-22T03:19:02;6.63;;;5.87;;
9034;SDS011;4552;43.422;24.592;2023-06-22T03:21:29;8.57;;;5.37;;
9034;SDS011;4552;43.422;24.592;2023-06-22T03:23:57;6.53;;;5.00;;
9034;SDS011;4552;43.422;24.592;2023-06-22T03:26:24;7.60;;;5.67;;
9034;SDS011;4552;43.422;24.592;2023-06-22T03:39:28;11.00;;;5.87;;
9034;SDS011;4552;43.422;24.592;2023-06-22T03:41:55;7.90;;;5.67;;
9034;SDS011;4552;43.422;24.592;2023-06-22T04:11:19;11.40;;;5.90;;
9034;SDS011;4552;43.422;24.592;2023-06-22T04:52:18;6.60;;;5.13;;
9034;SDS011;4552;43.422;24.592;2023-06-22T04:54:45;6.73;;;5.40;;
9034;SDS011;4552;43.422;24.592;2023-06-22T04:57:15;8.23;;;5.83;;
9034;SDS011;4552;43.422;24.592;2023-06-22T04:59:42;8.52;;;6.00;;
9034;SDS011;4552;43.422;24.592;2023-06-22T05:02:09;10.33;;;5.90;;
9034;SDS011;4552;43.422;24.592;2023-06-22T05:04:36;10.40;;;5.43;;
9034;SDS011;4552;43.422;24.592;2023-06-22T05:07:04;8.53;;;5.47;;
9034;SDS011;4552;43.422;24.592;2023-06-22T05:09:33;12.73;;;6.97;;
9034;SDS011;4552;43.422;24.592;2023-06-22T05:12:00;8.83;;;6.50;;
9034;SDS011;4552;43.422;24.592;2023-06-22T05:17:51;11.03;;;5.10;;
9034;SDS011;4552;43.422;24.592;2023-06-22T05:20:18;6.67;;;5.60;;
9034;SDS011;4552;43.422;24.592;2023-06-22T05:22:47;6.90;;;5.30;;
9034;SDS011;4552;43.422;24.592;2023-06-22T05:25:16;9.80;;;6.00;;
9034;SDS011;4552;43.422;24.592;2023-06-22T05:27:43;7.27;;;6.03;;
9034;SDS011;4552;43.422;24.592;2023-06-22T05:30:11;9.33;;;6.03;;
9034;SDS011;4552;43.422;24.592;2023-06-22T05:32:38;7.30;;;6.20;;
9034;SDS011;4552;43.422;24.592;2023-06-22T05:35:05;8.47;;;6.20;;
9034;SDS011;4552;43.422;24.592;2023-06-22T05:37:32;11.63;;;6.20;;
9034;SDS011;4552;43.422;24.592;2023-06-22T05:40:00;13.07;;;7.57;;
9034;SDS011;4552;43.422;24.592;2023-06-22T05:42:29;8.43;;;6.27;;
9034;SDS011;4552;43.422;24.592;2023-06-22T06:03:17;5.27;;;4.77;;
9034;SDS011;4552;43.422;24.592;2023-06-22T06:05:44;5.47;;;4.97;;
9034;SDS011;4552;43.422;24.592;2023-06-22T06:08:11;6.23;;;5.30;;
9034;SDS011;4552;43.422;24.592;2023-06-22T06:10:38;6.00;;;4.90;;
9034;SDS011;4552;43.422;24.592;2023-06-22T06:13:05;5.57;;;4.67;;
9034;SDS011;4552;43.422;24.592;2023-06-22T06:15:32;4.83;;;4.13;;
9034;SDS011;4552;43.422;24.592;2023-06-22T06:18:00;5.83;;;4.40;;
9034;SDS011;4552;43.422;24.592;2023-06-22T06:20:30;5.80;;;5.20;;
9034;SDS011;4552;43.422;24.592;2023-06-22T06:22:58;5.10;;;4.60;;
9034;SDS011;4552;43.422;24.592;2023-06-22T06:25:27;6.97;;;4.97;;
9034;SDS011;4552;43.422;24.592;2023-06-22T06:30:56;6.33;;;5.00;;
9034;SDS011;4552;43.422;24.592;2023-06-22T06:33:23;5.97;;;4.80;;
9034;SDS011;4552;43.422;24.592;2023-06-22T06:35:58;6.40;;;5.23;;
9034;SDS011;4552;43.422;24.592;2023-06-22T06:38:27;7.27;;;5.13;;
9034;SDS011;4552;43.422;24.592;2023-06-22T06:40:54;5.73;;;4.97;;
9034;SDS011;4552;43.422;24.592;2023-06-22T06:43:26;5.97;;;5.17;;
9034;SDS011;4552;43.422;24.592;2023-06-22T06:45:53;5.23;;;4.73;;
9034;SDS011;4552;43.422;24.592;2023-06-22T06:48:20;7.27;;;5.40;;
9034;SDS011;4552;43.422;24.592;2023-06-22T06:50:47;6.83;;;5.23;;
9034;SDS011;4552;43.422;24.592;2023-06-22T06:53:16;8.07;;;5.60;;
9034;SDS011;4552;43.422;24.592;2023-06-22T06:55:43;8.20;;;5.67;;
9034;SDS011;4552;43.422;24.592;2023-06-22T06:58:14;6.40;;;5.03;;
9034;SDS011;4552;43.422;24.592;2023-06-22T07:00:41;5.33;;;4.77;;
9034;SDS011;4552;43.422;24.592;2023-06-22T07:37:55;5.83;;;4.80;;
9034;SDS011;4552;43.422;24.592;2023-06-22T07:40:22;6.57;;;5.28;;
9034;SDS011;4552;43.422;24.592;2023-06-22T07:49:36;8.90;;;5.23;;
9034;SDS011;4552;43.422;24.592;2023-06-22T07:52:05;7.13;;;5.73;;
9034;SDS011;4552;43.422;24.592;2023-06-22T07:54:34;7.77;;;5.07;;
9034;SDS011;4552;43.422;24.592;2023-06-22T07:57:03;5.73;;;5.07;;
9034;SDS011;4552;43.422;24.592;2023-06-22T07:59:31;6.43;;;4.83;;
9034;SDS011;4552;43.422;24.592;2023-06-22T08:01:57;5.73;;;4.93;;
9034;SDS011;4552;43.422;24.592;2023-06-22T08:04:24;7.40;;;5.77;;
9034;SDS011;4552;43.422;24.592;2023-06-22T08:06:52;6.63;;;5.53;;
9034;SDS011;4552;43.422;24.592;2023-06-22T08:09:19;14.73;;;8.00;;
9034;SDS011;4552;43.422;24.592;2023-06-22T08:12:08;6.33;;;5.73;;
9034;SDS011;4552;43.422;24.592;2023-06-22T08:49:57;6.77;;;5.47;;
9034;SDS011;4552;43.422;24.592;2023-06-22T08:52:25;10.40;;;8.67;;
9034;SDS011;4552;43.422;24.592;2023-06-22T08:54:52;5.83;;;4.63;;
9034;SDS011;4552;43.422;24.592;2023-06-22T08:57:28;4.63;;;4.17;;
9034;SDS011;4552;43.422;24.592;2023-06-22T08:59:55;4.80;;;4.30;;
9034;SDS011;4552;43.422;24.592;2023-06-22T09:02:23;5.87;;;5.10;;
9034;SDS011;4552;43.422;24.592;2023-06-22T09:04:50;6.53;;;5.75;;
9034;SDS011;4552;43.422;24.592;2023-06-22T09:07:22;5.97;;;4.80;;
9034;SDS011;4552;43.422;24.592;2023-06-22T09:09:53;10.07;;;5.57;;
9034;SDS011;4552;43.422;24.592;2023-06-22T09:12:24;6.80;;;4.70;;
9034;SDS011;4552;43.422;24.592;2023-06-22T09:34:53;5.23;;;4.40;;
9034;SDS011;4552;43.422;24.592;2023-06-22T09:37:20;7.43;;;6.60;;
9034;SDS011;4552;43.422;24.592;2023-06-22T09:39:47;10.40;;;8.63;;
9034;SDS011;4552;43.422;24.592;2023-06-22T09:42:14;5.17;;;4.23;;
9034;SDS011;4552;43.422;24.592;2023-06-22T09:44:48;13.23;;;10.90;;
9034;SDS011;4552;43.422;24.592;2023-06-22T09:47:15;5.13;;;4.63;;
9034;SDS011;4552;43.422;24.592;2023-06-22T09:49:42;5.20;;;4.40;;
9034;SDS011;4552;43.422;24.592;2023-06-22T09:52:15;6.50;;;4.67;;
9034;SDS011;4552;43.422;24.592;2023-06-22T09:54:42;4.67;;;4.17;;
9034;SDS011;4552;43.422;24.592;2023-06-22T09:57:09;5.47;;;4.67;;
9034;SDS011;4552;43.422;24.592;2023-06-22T09:59:38;5.43;;;4.37;;
9034;SDS011;4552;43.422;24.592;2023-06-22T10:02:14;5.50;;;4.50;;
9034;SDS011;4552;43.422;24.592;2023-06-22T10:04:42;4.93;;;4.17;;
9034;SDS011;4552;43.422;24.592;2023-06-22T10:07:09;7.77;;;4.80;;
9034;SDS011;4552;43.422;24.592;2023-06-22T10:09:37;5.57;;;4.30;;
9034;SDS011;4552;43.422;24.592;2023-06-22T10:12:05;5.17;;;4.27;;
9034;SDS011;4552;43.422;24.592;2023-06-22T10:14:32;5.13;;;4.20;;
9034;SDS011;4552;43.422;24.592;2023-06-22T10:16:59;9.43;;;4.77;;
9034;SDS011;4552;43.422;24.592;2023-06-22T10:19:26;4.70;;;4.20;;
9034;SDS011;4552;43.422;24.592;2023-06-22T10:21:53;5.13;;;4.60;;
9034;SDS011;4552;43.422;24.592;2023-06-22T10:24:20;5.23;;;4.63;;
9034;SDS011;4552;43.422;24.592;2023-06-22T10:26:49;6.13;;;4.63;;
9034;SDS011;4552;43.422;24.592;2023-06-22T10:29:16;4.83;;;4.13;;
9034;SDS011;4552;43.422;24.592;2023-06-22T10:31:43;5.73;;;4.67;;
9034;SDS011;4552;43.422;24.592;2023-06-22T10:58:54;7.53;;;4.73;;
9034;SDS011;4552;43.422;24.592;2023-06-22T11:01:21;8.10;;;4.40;;
9034;SDS011;4552;43.422;24.592;2023-06-22T11:03:48;4.00;;;3.60;;
9034;SDS011;4552;43.422;24.592;2023-06-22T11:06:20;5.03;;;4.10;;
9034;SDS011;4552;43.422;24.592;2023-06-22T11:08:47;5.53;;;4.47;;
9034;SDS011;4552;43.422;24.592;2023-06-22T11:11:15;4.23;;;3.83;;
9034;SDS011;4552;43.422;24.592;2023-06-22T11:13:57;6.73;;;4.73;;
9034;SDS011;4552;43.422;24.592;2023-06-22T11:16:24;5.20;;;4.70;;
9034;SDS011;4552;43.422;24.592;2023-06-22T11:18:52;4.20;;;3.80;;
9034;SDS011;4552;43.422;24.592;2023-06-22T11:21:19;5.13;;;4.30;;
9034;SDS011;4552;43.422;24.592;2023-06-22T11:23:46;6.17;;;4.40;;
9034;SDS011;4552;43.422;24.592;2023-06-22T11:26:13;4.67;;;4.13;;
9034;SDS011;4552;43.422;24.592;2023-06-22T11:28:44;4.43;;;3.87;;
9034;SDS011;4552;43.422;24.592;2023-06-22T11:31:20;4.20;;;3.80;;
9034;SDS011;4552;43.422;24.592;2023-06-22T11:33:47;8.00;;;4.80;;
9034;SDS011;4552;43.422;24.592;2023-06-22T11:36:14;5.87;;;4.40;;
9034;SDS011;4552;43.422;24.592;2023-06-22T11:38:42;6.63;;;4.90;;
9034;SDS011;4552;43.422;24.592;2023-06-22T11:41:09;4.77;;;4.27;;
9034;SDS011;4552;43.422;24.592;2023-06-22T11:50:21;5.80;;;4.27;;
9034;SDS011;4552;43.422;24.592;2023-06-22T11:52:48;7.90;;;4.50;;
9034;SDS011;4552;43.422;24.592;2023-06-22T11:55:19;5.13;;;4.60;;
9034;SDS011;4552;43.422;24.592;2023-06-22T11:57:53;5.20;;;4.63;;
9034;SDS011;4552;43.422;24.592;2023-06-22T12:13:49;5.37;;;4.87;;
9034;SDS011;4552;43.422;24.592;2023-06-22T12:16:16;4.90;;;4.33;;
9034;SDS011;4552;43.422;24.592;2023-06-22T12:18:44;5.23;;;4.50;;
9034;SDS011;4552;43.422;24.592;2023-06-22T12:21:11;5.90;;;4.97;;
9034;SDS011;4552;43.422;24.592;2023-06-22T12:23:44;5.00;;;4.50;;
9034;SDS011;4552;43.422;24.592;2023-06-22T12:26:11;10.57;;;8.27;;
9034;SDS011;4552;43.422;24.592;2023-06-22T12:28:38;5.27;;;4.67;;
9034;SDS011;4552;43.422;24.592;2023-06-22T12:31:06;6.07;;;5.30;;
9034;SDS011;4552;43.422;24.592;2023-06-22T12:33:33;31.77;;;23.43;;
9034;SDS011;4552;43.422;24.592;2023-06-22T12:36:00;9.60;;;6.03;;
9034;SDS011;4552;43.422;24.592;2023-06-22T12:38:28;5.50;;;4.93;;
9034;SDS011;4552;43.422;24.592;2023-06-22T12:40:55;6.63;;;5.00;;
9034;SDS011;4552;43.422;24.592;2023-06-22T13:22:30;4.83;;;4.40;;
9034;SDS011;4552;43.422;24.592;2023-06-22T13:48:09;4.83;;;4.30;;
9034;SDS011;4552;43.422;24.592;2023-06-22T13:50:42;4.67;;;4.17;;
9034;SDS011;4552;43.422;24.592;2023-06-22T13:53:12;5.07;;;4.57;;
9034;SDS011;4552;43.422;24.592;2023-06-22T13:55:40;7.47;;;5.00;;
9034;SDS011;4552;43.422;24.592;2023-06-22T13:58:07;5.20;;;4.70;;
9034;SDS011;4552;43.422;24.592;2023-06-22T14:00:34;5.45;;;4.90;;
9034;SDS011;4552;43.422;24.592;2023-06-22T14:03:14;4.67;;;4.23;;
9034;SDS011;4552;43.422;24.592;2023-06-22T14:05:42;5.17;;;4.67;;
9034;SDS011;4552;43.422;24.592;2023-06-22T14:08:09;4.50;;;4.00;;
9034;SDS011;4552;43.422;24.592;2023-06-22T15:55:10;7.33;;;4.60;;
9034;SDS011;4552;43.422;24.592;2023-06-22T15:57:41;5.37;;;4.87;;
9034;SDS011;4552;43.422;24.592;2023-06-22T16:00:31;7.40;;;5.10;;
9034;SDS011;4552;43.422;24.592;2023-06-22T16:02:58;5.40;;;4.57;;
9034;SDS011;4552;43.422;24.592;2023-06-22T16:05:25;5.50;;;4.63;;
9034;SDS011;4552;43.422;24.592;2023-06-22T16:07:55;19.63;;;16.63;;
9034;SDS011;4552;43.422;24.592;2023-06-22T16:10:24;8.73;;;6.90;;
9034;SDS011;4552;43.422;24.592;2023-06-22T16:12:52;5.80;;;5.20;;
9034;SDS011;4552;43.422;24.592;2023-06-22T16:15:20;6.17;;;5.03;;
9034;SDS011;4552;43.422;24.592;2023-06-22T16:17:47;12.73;;;9.73;;
9034;SDS011;4552;43.422;24.592;2023-06-22T16:20:14;12.27;;;9.85;;
9034;SDS011;4552;43.422;24.592;2023-06-22T16:22:43;12.67;;;9.33;;
9034;SDS011;4552;43.422;24.592;2023-06-22T16:25:11;7.40;;;6.17;;
9034;SDS011;4552;43.422;24.592;2023-06-22T16:27:39;9.00;;;6.70;;
9034;SDS011;4552;43.422;24.592;2023-06-22T16:30:08;6.20;;;5.57;;
9034;SDS011;4552;43.422;24.592;2023-06-22T16:32:35;9.70;;;8.17;;
9034;SDS011;4552;43.422;24.592;2023-06-22T16:35:02;6.97;;;5.23;;
9034;SDS011;4552;43.422;24.592;2023-06-22T16:37:29;7.20;;;5.20;;
9034;SDS011;4552;43.422;24.592;2023-06-22T16:50:22;7.13;;;5.30;;
9034;SDS011;4552;43.422;24.592;2023-06-22T16:52:53;7.60;;;6.00;;
9034;SDS011;4552;43.422;24.592;2023-06-22T16:55:20;8.07;;;6.23;;
9034;SDS011;4552;43.422;24.592;2023-06-22T16:57:49;9.67;;;6.57;;
9034;SDS011;4552;43.422;24.592;2023-06-22T17:00:18;10.57;;;7.78;;
9034;SDS011;4552;43.422;24.592;2023-06-22T17:02:45;8.50;;;5.97;;
9034;SDS011;4552;43.422;24.592;2023-06-22T17:05:14;8.50;;;6.27;;
9034;SDS011;4552;43.422;24.592;2023-06-22T17:07:45;8.63;;;6.60;;
9034;SDS011;4552;43.422;24.592;2023-06-22T17:10:15;8.03;;;5.83;;
9034;SDS011;4552;43.422;24.592;2023-06-22T17:12:42;7.13;;;5.50;;
9034;SDS011;4552;43.422;24.592;2023-06-22T17:15:10;6.73;;;5.17;;
9034;SDS011;4552;43.422;24.592;2023-06-22T17:17:38;7.67;;;6.10;;
9034;SDS011;4552;43.422;24.592;2023-06-22T17:20:06;7.17;;;5.23;;
9034;SDS011;4552;43.422;24.592;2023-06-22T17:25:37;8.07;;;6.35;;
9034;SDS011;4552;43.422;24.592;2023-06-22T17:28:06;10.50;;;7.43;;
9034;SDS011;4552;43.422;24.592;2023-06-22T17:30:37;7.30;;;5.57;;
9034;SDS011;4552;43.422;24.592;2023-06-22T17:33:08;5.83;;;4.80;;
9034;SDS011;4552;43.422;24.592;2023-06-22T17:35:44;6.97;;;5.20;;
9034;SDS011;4552;43.422;24.592;2023-06-22T17:38:18;8.15;;;6.15;;
9034;SDS011;4552;43.422;24.592;2023-06-22T17:40:48;6.73;;;5.73;;
9034;SDS011;4552;43.422;24.592;2023-06-22T17:43:18;7.77;;;6.27;;
9034;SDS011;4552;43.422;24.592;2023-06-22T17:45:45;5.77;;;5.17;;
9034;SDS011;4552;43.422;24.592;2023-06-22T17:48:13;9.70;;;7.03;;
9034;SDS011;4552;43.422;24.592;2023-06-22T17:50:46;6.47;;;5.63;;
9034;SDS011;4552;43.422;24.592;2023-06-22T17:53:13;7.37;;;6.20;;
9034;SDS011;4552;43.422;24.592;2023-06-22T17:55:41;5.83;;;5.30;;
9034;SDS011;4552;43.422;24.592;2023-06-22T17:58:08;7.57;;;6.70;;
9034;SDS011;4552;43.422;24.592;2023-06-22T18:00:36;7.83;;;5.23;;
9034;SDS011;4552;43.422;24.592;2023-06-22T18:03:03;6.40;;;5.70;;
9034;SDS011;4552;43.422;24.592;2023-06-22T18:05:31;11.80;;;6.30;;
9034;SDS011;4552;43.422;24.592;2023-06-22T18:08:00;11.57;;;7.27;;
9034;SDS011;4552;43.422;24.592;2023-06-22T18:10:29;7.87;;;5.90;;
9034;SDS011;4552;43.422;24.592;2023-06-22T18:12:59;9.57;;;6.00;;
9034;SDS011;4552;43.422;24.592;2023-06-22T18:15:28;7.93;;;6.23;;
9034;SDS011;4552;43.422;24.592;2023-06-22T18:17:56;15.55;;;8.95;;
9034;SDS011;4552;43.422;24.592;2023-06-22T18:20:25;10.10;;;7.10;;
9034;SDS011;4552;43.422;24.592;2023-06-22T18:22:53;9.27;;;7.03;;
9034;SDS011;4552;43.422;24.592;2023-06-22T18:25:20;7.67;;;5.53;;
9034;SDS011;4552;43.422;24.592;2023-06-22T18:27:48;9.10;;;7.27;;
9034;SDS011;4552;43.422;24.592;2023-06-22T18:30:20;9.87;;;6.83;;
9034;SDS011;4552;43.422;24.592;2023-06-22T18:32:47;9.77;;;7.40;;
9034;SDS011;4552;43.422;24.592;2023-06-22T18:35:15;8.93;;;7.10;;
9034;SDS011;4552;43.422;24.592;2023-06-22T18:37:42;9.63;;;8.13;;
9034;SDS011;4552;43.422;24.592;2023-06-22T18:43:41;10.67;;;7.37;;
9034;SDS011;4552;43.422;24.592;2023-06-22T18:49:02;20.40;;;11.63;;
9034;SDS011;4552;43.422;24.592;2023-06-22T18:51:51;11.27;;;7.70;;
9034;SDS011;4552;43.422;24.592;2023-06-22T18:54:20;9.73;;;7.97;;
9034;SDS011;4552;43.422;24.592;2023-06-22T18:56:53;14.50;;;9.90;;
9034;SDS011;4552;43.422;24.592;2023-06-22T19:02:12;11.43;;;8.40;;
9034;SDS011;4552;43.422;24.592;2023-06-22T19:04:40;9.70;;;7.13;;
9034;SDS011;4552;43.422;24.592;2023-06-22T19:07:08;11.40;;;7.97;;
9034;SDS011;4552;43.422;24.592;2023-06-22T19:32:59;74.47;;;67.53;;
9034;SDS011;4552;43.422;24.592;2023-06-22T19:35:28;54.20;;;48.87;;
9034;SDS011;4552;43.422;24.592;2023-06-22T19:37:55;26.37;;;23.17;;
9034;SDS011;4552;43.422;24.592;2023-06-22T19:40:22;40.95;;;21.73;;
9034;SDS011;4552;43.422;24.592;2023-06-22T19:42:52;42.03;;;21.63;;
9034;SDS011;4552;43.422;24.592;2023-06-22T19:45:20;29.90;;;16.37;;
9034;SDS011;4552;43.422;24.592;2023-06-22T19:47:48;8.50;;;7.10;;
9034;SDS011;4552;43.422;24.592;2023-06-22T19:50:17;9.30;;;7.20;;
9034;SDS011;4552;43.422;24.592;2023-06-22T19:55:26;9.07;;;6.63;;
9034;SDS011;4552;43.422;24.592;2023-06-22T19:57:53;9.23;;;6.77;;
9034;SDS011;4552;43.422;24.592;2023-06-22T20:00:20;8.80;;;6.40;;
9034;SDS011;4552;43.422;24.592;2023-06-22T20:02:49;10.20;;;6.57;;
9034;SDS011;4552;43.422;24.592;2023-06-22T20:05:24;7.63;;;6.00;;
9034;SDS011;4552;43.422;24.592;2023-06-22T20:07:51;7.25;;;6.53;;
9034;SDS011;4552;43.422;24.592;2023-06-22T20:17:03;7.57;;;6.17;;
9034;SDS011;4552;43.422;24.592;2023-06-22T20:19:34;9.27;;;7.20;;
9034;SDS011;4552;43.422;24.592;2023-06-22T20:22:06;8.55;;;7.03;;
9034;SDS011;4552;43.422;24.592;2023-06-22T21:09:50;8.47;;;6.50;;
9034;SDS011;4552;43.422;24.592;2023-06-22T21:12:16;7.83;;;6.27;;
9034;SDS011;4552;43.422;24.592;2023-06-22T21:14:43;7.97;;;6.37;;
9034;SDS011;4552;43.422;24.592;2023-06-22T21:17:10;8.40;;;6.43;;
9034;SDS011;4552;43.422;24.592;2023-06-22T21:19:37;8.23;;;6.80;;
9034;SDS011;4552;43.422;24.592;2023-06-22T21:22:06;9.07;;;6.50;;
9034;SDS011;4552;43.422;24.592;2023-06-22T21:24:33;7.60;;;6.23;;
9034;SDS011;4552;43.422;24.592;2023-06-22T21:27:01;8.90;;;6.90;;
9034;SDS011;4552;43.422;24.592;2023-06-22T21:29:28;8.03;;;6.00;;
9034;SDS011;4552;43.422;24.592;2023-06-22T21:31:55;8.88;;;6.85;;
9034;SDS011;4552;43.422;24.592;2023-06-22T21:34:22;10.77;;;6.80;;
9034;SDS011;4552;43.422;24.592;2023-06-22T21:36:49;7.37;;;5.43;;
9034;SDS011;4552;43.422;24.592;2023-06-22T21:39:16;7.63;;;6.43;;
9034;SDS011;4552;43.422;24.592;2023-06-22T21:41:43;7.90;;;6.30;;
9034;SDS011;4552;43.422;24.592;2023-06-22T21:44:12;11.23;;;6.83;;
9034;SDS011;4552;43.422;24.592;2023-06-22T21:46:38;9.98;;;7.38;;
9034;SDS011;4552;43.422;24.592;2023-06-22T21:49:05;9.70;;;7.17;;
9034;SDS011;4552;43.422;24.592;2023-06-22T21:51:32;8.13;;;6.17;;
9034;SDS011;4552;43.422;24.592;2023-06-22T21:53:59;7.40;;;5.90;;
9034;SDS011;4552;43.422;24.592;2023-06-22T22:20:33;10.13;;;6.70;;
9034;SDS011;4552;43.422;24.592;2023-06-22T22:23:00;8.33;;;7.00;;
9034;SDS011;4552;43.422;24.592;2023-06-22T22:25:27;7.23;;;6.23;;
9034;SDS011;4552;43.422;24.592;2023-06-22T22:27:55;10.13;;;7.40;;
9034;SDS011;4552;43.422;24.592;2023-06-22T22:30:22;8.18;;;6.93;;
9034;SDS011;4552;43.422;24.592;2023-06-22T22:32:49;8.63;;;6.63;;
9034;SDS011;4552;43.422;24.592;2023-06-22T22:35:18;7.67;;;6.30;;
9034;SDS011;4552;43.422;24.592;2023-06-22T22:37:45;8.27;;;6.47;;
9034;SDS011;4552;43.422;24.592;2023-06-22T23:03:46;8.48;;;7.13;;
9034;SDS011;4552;43.422;24.592;2023-06-22T23:06:13;9.27;;;7.07;;
9034;SDS011;4552;43.422;24.592;2023-06-22T23:08:40;8.40;;;6.47;;
9034;SDS011;4552;43.422;24.592;2023-06-22T23:40:06;8.53;;;6.60;;
9034;SDS011;4552;43.422;24.592;2023-06-22T23:42:41;7.00;;;6.30;;
9034;SDS011;4552;43.422;24.592;2023-06-22T23:45:12;8.47;;;7.17;;
9034;SDS011;4552;43.422;24.592;2023-06-22T23:47:42;9.20;;;6.87;;
9034;SDS011;4552;43.422;24.592;2023-06-22T23:50:10;8.50;;;6.60;;
9034;SDS011;4552;43.422;24.592;2023-06-22T23:52:37;8.97;;;6.83;;
9034;SDS011;4552;43.422;24.592;2023-06-22T23:55:07;8.83;;;7.40;;
9034;SDS011;4552;43.422;24.592;2023-06-22T23:57:34;8.03;;;6.80;;
